Terminal Aerodrome Forecast
Issued by NWS

Home | Current Version | Previous Version | Text Only | Print | Product List | Glossary On
Versions: 1 2 3 4 5 6 7 8 9 10 11 12 13 14 15 16 17 18 19 20 21 22 23 24 25 26 27 28
000
FTAK31 PANC 280532
TAFADU
TAF
PADU 280532Z 2806/2906 21006KT P6SM VCSH SCT025 BKN045
     FM281200 16005KT P6SM SCT015 SCT025 BKN050
     FM290200 16008KT P6SM -RA SCT015 OVC025=

USA.gov is the U.S. government's official web portal to all federal, state and local government web resources and services.